地図

経路データ

SID SEASON NUMBER BASIN SUBBASIN NAME ISO_TIME NATURE LAT LON WMO_WIND WMO_PRES WMO_AGENCY TRACK_TYPE DIST2LAND LANDFALL IFLAG USA_AGENCY USA_ATCF_ID USA_LAT USA_LON USA_RECORD USA_STATUS USA_WIND USA_PRES USA_SSHS USA_R34_NE USA_R34_SE USA_R34_SW USA_R34_NW USA_R50_NE USA_R50_SE USA_R50_SW USA_R50_NW USA_R64_NE USA_R64_SE USA_R64_SW USA_R64_NW USA_POCI USA_ROCI USA_RMW USA_EYE TOKYO_LAT TOKYO_LON TOKYO_GRADE TOKYO_WIND TOKYO_PRES TOKYO_R50_DIR TOKYO_R50_LONG TOKYO_R50_SHORT TOKYO_R30_DIR TOKYO_R30_LONG TOKYO_R30_SHORT TOKYO_LAND CMA_LAT CMA_LON CMA_CAT CMA_WIND CMA_PRES HKO_LAT HKO_LON HKO_CAT HKO_WIND HKO_PRES NEWDELHI_LAT NEWDELHI_LON NEWDELHI_GRADE NEWDELHI_WIND NEWDELHI_PRES NEWDELHI_CI NEWDELHI_DP NEWDELHI_POCI REUNION_LAT REUNION_LON REUNION_TYPE REUNION_WIND REUNION_PRES REUNION_TNUM REUNION_CI REUNION_RMW REUNION_R34_NE REUNION_R34_SE REUNION_R34_SW REUNION_R34_NW REUNION_R50_NE REUNION_R50_SE REUNION_R50_SW REUNION_R50_NW REUNION_R64_NE REUNION_R64_SE REUNION_R64_SW REUNION_R64_NW BOM_LAT BOM_LON BOM_TYPE BOM_WIND BOM_PRES BOM_TNUM BOM_CI BOM_RMW BOM_R34_NE BOM_R34_SE BOM_R34_SW BOM_R34_NW BOM_R50_NE BOM_R50_SE BOM_R50_SW BOM_R50_NW BOM_R64_NE BOM_R64_SE BOM_R64_SW BOM_R64_NW BOM_ROCI BOM_POCI BOM_EYE BOM_POS_METHOD BOM_PRES_METHOD NADI_LAT NADI_LON NADI_CAT NADI_WIND NADI_PRES WELLINGTON_LAT WELLINGTON_LON WELLINGTON_WIND WELLINGTON_PRES DS824_LAT DS824_LON DS824_STAGE DS824_WIND DS824_PRES TD9636_LAT TD9636_LON TD9636_STAGE TD9636_WIND TD9636_PRES TD9635_LAT TD9635_LON TD9635_WIND TD9635_PRES TD9635_ROCI NEUMANN_LAT NEUMANN_LON NEUMANN_CLASS NEUMANN_WIND NEUMANN_PRES MLC_LAT MLC_LON MLC_CLASS MLC_WIND MLC_PRES USA_GUST BOM_GUST BOM_GUST_PER REUNION_GUST REUNION_GUST_PER USA_SEAHGT USA_SEARAD_NE USA_SEARAD_SE USA_SEARAD_SW USA_SEARAD_NW STORM_SPEED STORM_DIR
1917040S13051 1917 9 SI MM NOT_NAMED 1917-02-09 00:00:00 TS -12.6000 51.1000 main 137 76 _________O____ -1 -12.6000 51.1000 TC 25 13 238
1917040S13051 1917 9 SI MM NOT_NAMED 1917-02-09 03:00:00 TS -12.9377 50.5477 main 66 10 _________P____ -1 -12.9377 50.5477 TC 25 13 237
1917040S13051 1917 9 SI MM NOT_NAMED 1917-02-09 06:00:00 TS -13.3000 50.0000 main 10 0 _________O____ -1 -13.3000 50.0000 TC 25 13 234
1917040S13051 1917 9 SI MM NOT_NAMED 1917-02-09 09:00:00 TS -13.7000 49.4700 main 0 0 _________P____ -1 -13.7000 49.4700 TC 25 13 231
1917040S13051 1917 9 SI MM NOT_NAMED 1917-02-09 12:00:00 TS -14.1000 49.0000 main 0 0 _________O____ -1 -14.1000 49.0000 TC 25 11 228
1917040S13051 1917 9 SI MM NOT_NAMED 1917-02-09 15:00:00 TS -14.4499 48.6198 main 0 0 _________P____ -1 -14.4499 48.6198 TC 25 10 224
1917040S13051 1917 9 SI MM NOT_NAMED 1917-02-09 18:00:00 TS -14.8000 48.3000 main 0 0 _________O____ -1 -14.8000 48.3000 TC 25 10 219
1917040S13051 1917 9 SI MM NOT_NAMED 1917-02-09 21:00:00 TS -15.2075 47.9775 main 0 0 _________P____ -1 -15.2075 47.9775 TC 25 10 216
1917040S13051 1917 9 SI MM NOT_NAMED 1917-02-10 00:00:00 TS -15.6000 47.7000 main 0 0 _________O____ -1 -15.6000 47.7000 TC 25 9 214
1917040S13051 1917 9 SI MM NOT_NAMED 1917-02-10 03:00:00 TS -15.9149 47.4774 main 0 0 _________P____ -1 -15.9149 47.4774 TC 25 7 213
1917040S13051 1917 9 SI MM NOT_NAMED 1917-02-10 06:00:00 TS -16.2000 47.3000 main 0 0 _________O____ -1 -16.2000 47.3000 TC 25 7 209
1917040S13051 1917 9 SI MM NOT_NAMED 1917-02-10 09:00:00 TS -16.4925 47.1424 main 0 0 _________P____ -1 -16.4925 47.1424 TC 25 7 206
1917040S13051 1917 9 SI MM NOT_NAMED 1917-02-10 12:00:00 TS -16.8000 47.0000 main 0 0 _________O____ -1 -16.8000 47.0000 TC 25 7 203
1917040S13051 1917 9 SI MM NOT_NAMED 1917-02-10 15:00:00 TS -17.1425 46.8500 main 0 0 _________P____ -1 -17.1425 46.8500 TC 25 8 202
1917040S13051 1917 9 SI MM NOT_NAMED 1917-02-10 18:00:00 TS -17.5000 46.7000 main 0 0 _________O____ -1 -17.5000 46.7000 TC 25 8 203
1917040S13051 1917 9 SI MM NOT_NAMED 1917-02-10 21:00:00 TS -17.8350 46.5425 main 0 0 _________P____ -1 -17.8350 46.5425 TC 25 8 202
1917040S13051 1917 9 SI MM NOT_NAMED 1917-02-11 00:00:00 TS -18.2000 46.4000 main 0 0 _________O____ -1 -18.2000 46.4000 TC 25 8 198
1917040S13051 1917 9 SI MM NOT_NAMED 1917-02-11 03:00:00 TS -18.6350 46.2701 main 0 0 _________P____ -1 -18.6350 46.2701 TC 25 9 192
1917040S13051 1917 9 SI MM NOT_NAMED 1917-02-11 06:00:00 TS -19.1000 46.2000 main 0 0 _________O____ -1 -19.1000 46.2000 TC 25 9 183
1917040S13051 1917 9 SI MM NOT_NAMED 1917-02-11 09:00:00 TS -19.5500 46.2199 main 0 0 _________P____ -1 -19.5500 46.2199 TC 25 9 174
1917040S13051 1917 9 SI MM NOT_NAMED 1917-02-11 12:00:00 TS -20.0000 46.3000 main 0 0 _________O____ -1 -20.0000 46.3000 TC 25 9 170
1917040S13051 1917 9 SI MM NOT_NAMED 1917-02-11 15:00:00 TS -20.4575 46.3850 main 0 0 _________P____ -1 -20.4575 46.3850 TC 25 9 168
1917040S13051 1917 9 SI MM NOT_NAMED 1917-02-11 18:00:00 TS -20.9000 46.5000 main 0 0 _________O____ -1 -20.9000 46.5000 TC 25 9 164
1917040S13051 1917 9 SI MM NOT_NAMED 1917-02-11 21:00:00 TS -21.3150 46.6425 main 0 0 _________P____ -1 -21.3150 46.6425 TC 25 9 161
1917040S13051 1917 9 SI MM NOT_NAMED 1917-02-12 00:00:00 TS -21.7000 46.8000 main 0 0 _________O____ -1 -21.7000 46.8000 TC 25 8 159
1917040S13051 1917 9 SI MM NOT_NAMED 1917-02-12 03:00:00 TS -22.0575 46.9501 main 0 0 _________P____ -1 -22.0575 46.9501 TC 25 8 158
1917040S13051 1917 9 SI MM NOT_NAMED 1917-02-12 06:00:00 TS -22.4000 47.1000 main 0 0 _________O____ -1 -22.4000 47.1000 TC 25 8 158
1917040S13051 1917 9 SI MM NOT_NAMED 1917-02-12 09:00:00 TS -22.7575 47.2500 main 0 0 _________P____ -1 -22.7575 47.2500 TC 25 8 158
1917040S13051 1917 9 SI MM NOT_NAMED 1917-02-12 12:00:00 TS -23.1000 47.4000 main 0 0 _________O____ -1 -23.1000 47.4000 TC 25 7 158
1917040S13051 1917 9 SI MM NOT_NAMED 1917-02-12 15:00:00 TS -23.4150 47.5426 main 0 0 _________P____ -1 -23.4150 47.5426 TC 25 7 155
1917040S13051 1917 9 SI MM NOT_NAMED 1917-02-12 18:00:00 TS -23.7000 47.7000 main 15 15 _________O____ -1 -23.7000 47.7000 TC 25 5 150
1917040S13051 1917 9 SI MM NOT_NAMED 1917-02-12 21:00:00 TS -23.8142 47.7907 main 30 30 _________P____ -1 -23.8142 47.7907 TC 25 6 144
1917040S13051 1917 9 SI MM NOT_NAMED 1917-02-13 00:00:00 TS -24.2000 48.1000 main 64 64 _________O____ -1 -24.2000 48.1000 TC 25 18 146
1917040S13051 1917 9 SI MM NOT_NAMED 1917-02-13 03:00:00 TS -25.2656 48.8707 main 183 183 _________P____ -1 -25.2656 48.8707 TC 25 29 146
1917040S13051 1917 9 SI MM NOT_NAMED 1917-02-13 06:00:00 TS -26.6000 49.9000 main 332 332 _________O____ -1 -26.6000 49.9000 TC 25 32 144
1917040S13051 1917 9 SI MM NOT_NAMED 1917-02-13 09:00:00 TS -27.8098 50.9349 main 490 490 _________P____ -1 -27.8098 50.9349 TC 25 30 141
1917040S13051 1917 9 SI MM NOT_NAMED 1917-02-13 12:00:00 TS -28.9000 52.0000 main 651 651 _________O____ -1 -28.9000 52.0000 TC 25 27 137
1917040S13051 1917 9 SI MM NOT_NAMED 1917-02-13 15:00:00 TS -29.7663 53.0029 main 790 790 _________P____ -1 -29.7663 53.0029 TC 25 24 133
1917040S13051 1917 9 SI MM NOT_NAMED 1917-02-13 18:00:00 TS -30.5000 54.0000 main 914 914 _________O____ -1 -30.5000 54.0000 TC 25 23 129
1917040S13051 1917 9 SI MM NOT_NAMED 1917-02-13 21:00:00 TS -31.1988 55.0230 main 1037 1037 _________P____ -1 -31.1988 55.0230 TC 25 23 128
1917040S13051 1917 9 SI MM NOT_NAMED 1917-02-14 00:00:00 TS -31.9000 56.1000 main 1167 1167 _________O____ -1 -31.9000 56.1000 TC 25 24 128
1917040S13051 1917 9 SI MM NOT_NAMED 1917-02-14 03:00:00 TS -32.6918 57.2710 main 1273 1273 _________P____ -1 -32.6918 57.2710 TC 25 26 128
1917040S13051 1917 9 SI MM NOT_NAMED 1917-02-14 06:00:00 TS -33.5000 58.5000 main 1380 1380 _________O____ -1 -33.5000 58.5000 TC 25 26 127
1917040S13051 1917 9 SI MM NOT_NAMED 1917-02-14 09:00:00 TS -34.2412 59.7383 main 1484 1484 _________P____ -1 -34.2412 59.7383 TC 25 26 126
1917040S13051 1917 9 SI MM NOT_NAMED 1917-02-14 12:00:00 TS -35.0000 61.0000 main 1606 1545 _________O____ -1 -35.0000 61.0000 TC 25 26 127
1917040S13051 1917 9 SI MM NOT_NAMED 1917-02-14 15:00:00 TS -35.8411 62.2867 main 1542 1414 _________P____ -1 -35.8411 62.2867 TC 25 27 129
1917040S13051 1917 9 SI MM NOT_NAMED 1917-02-14 18:00:00 TS -36.7000 63.6000 main 1412 1296 _________O____ -1 -36.7000 63.6000 TC 25 27 128
1917040S13051 1917 9 SI MM NOT_NAMED 1917-02-14 21:00:00 TS -37.5181 64.9372 main 1296 1187 _________P____ -1 -37.5181 64.9372 TC 25 27 127
1917040S13051 1917 9 SI MM NOT_NAMED 1917-02-15 00:00:00 TS -38.3000 66.3000 main 1185 _________O____ -1 -38.3000 66.3000 TC 25 27 126

IBTrACS Databaseについて

本データベースは、米国NOAAが公開する1842年以降の世界の熱帯低気圧のベストトラックデータアーカイブInternational Best Track Archive for Climate Stewardship (IBTrACS)を、ウェブで閲覧しやすい形式に変換したものです。

最終更新日:2021-10-21